sensor_id;sensor_type;location;lat;lon;timestamp;pressure;altitude;pressure_sealevel;temperature;humidity
77574;BME280;66710;48.868;9.080;2023-03-01T00:02:04;98809.00;;;-3.08;75.19
77574;BME280;66710;48.868;9.080;2023-03-01T00:04:30;98803.00;;;-3.02;74.92
77574;BME280;66710;48.868;9.080;2023-03-01T00:06:55;98799.34;;;-3.17;74.53
77574;BME280;66710;48.868;9.080;2023-03-01T00:09:20;98802.19;;;-3.19;74.85
77574;BME280;66710;48.868;9.080;2023-03-01T00:11:46;98794.19;;;-3.19;74.47
77574;BME280;66710;48.868;9.080;2023-03-01T00:14:11;98803.16;;;-3.20;74.68
77574;BME280;66710;48.868;9.080;2023-03-01T00:16:40;98807.31;;;-3.26;75.10
77574;BME280;66710;48.868;9.080;2023-03-01T00:19:07;98808.50;;;-3.20;75.00
77574;BME280;66710;48.868;9.080;2023-03-01T00:21:35;98798.78;;;-3.37;74.93
77574;BME280;66710;48.868;9.080;2023-03-01T00:24:01;98804.69;;;-3.17;75.17
77574;BME280;66710;48.868;9.080;2023-03-01T00:26:26;98795.84;;;-3.26;74.58
77574;BME280;66710;48.868;9.080;2023-03-01T00:28:52;98802.66;;;-3.24;75.56
77574;BME280;66710;48.868;9.080;2023-03-01T00:31:20;98805.00;;;-3.20;75.79
77574;BME280;66710;48.868;9.080;2023-03-01T00:33:46;98799.81;;;-3.38;75.80
77574;BME280;66710;48.868;9.080;2023-03-01T00:36:13;98805.16;;;-3.22;75.71
77574;BME280;66710;48.868;9.080;2023-03-01T00:38:41;98801.97;;;-3.42;76.14
77574;BME280;66710;48.868;9.080;2023-03-01T00:41:09;98804.91;;;-3.53;74.58
77574;BME280;66710;48.868;9.080;2023-03-01T00:43:35;98804.44;;;-3.49;75.67
77574;BME280;66710;48.868;9.080;2023-03-01T00:46:02;98809.91;;;-3.58;75.82
77574;BME280;66710;48.868;9.080;2023-03-01T00:48:28;98804.06;;;-3.62;76.16
77574;BME280;66710;48.868;9.080;2023-03-01T00:50:53;98808.22;;;-3.68;76.50
77574;BME280;66710;48.868;9.080;2023-03-01T00:53:18;98808.00;;;-3.74;74.89
77574;BME280;66710;48.868;9.080;2023-03-01T00:55:43;98810.34;;;-3.71;76.77
77574;BME280;66710;48.868;9.080;2023-03-01T00:58:09;98808.88;;;-3.66;76.31
77574;BME280;66710;48.868;9.080;2023-03-01T01:00:34;98803.91;;;-3.60;76.21
77574;BME280;66710;48.868;9.080;2023-03-01T01:02:59;98800.56;;;-3.63;74.43
77574;BME280;66710;48.868;9.080;2023-03-01T01:05:24;98809.22;;;-3.60;77.26
77574;BME280;66710;48.868;9.080;2023-03-01T01:07:50;98798.56;;;-3.60;75.36
77574;BME280;66710;48.868;9.080;2023-03-01T01:10:15;98800.53;;;-3.71;75.75
77574;BME280;66710;48.868;9.080;2023-03-01T01:12:43;98793.91;;;-3.67;76.85
77574;BME280;66710;48.868;9.080;2023-03-01T01:15:08;98797.06;;;-3.71;77.62
77574;BME280;66710;48.868;9.080;2023-03-01T01:17:34;98795.44;;;-3.56;77.40
77574;BME280;66710;48.868;9.080;2023-03-01T01:19:59;98800.03;;;-3.74;76.13
77574;BME280;66710;48.868;9.080;2023-03-01T01:22:24;98791.09;;;-3.65;77.01
77574;BME280;66710;48.868;9.080;2023-03-01T01:24:49;98791.53;;;-3.78;75.33
77574;BME280;66710;48.868;9.080;2023-03-01T01:27:15;98789.69;;;-3.86;76.29
77574;BME280;66710;48.868;9.080;2023-03-01T01:29:40;98786.03;;;-3.85;77.05
77574;BME280;66710;48.868;9.080;2023-03-01T01:32:07;98785.00;;;-3.92;78.03
77574;BME280;66710;48.868;9.080;2023-03-01T01:34:32;98783.03;;;-3.90;76.69
77574;BME280;66710;48.868;9.080;2023-03-01T01:36:57;98773.34;;;-3.91;77.06
77574;BME280;66710;48.868;9.080;2023-03-01T01:39:27;98762.94;;;-3.68;76.88
77574;BME280;66710;48.868;9.080;2023-03-01T01:41:52;98763.88;;;-3.93;76.88
77574;BME280;66710;48.868;9.080;2023-03-01T01:44:23;98764.78;;;-3.68;76.81
77574;BME280;66710;48.868;9.080;2023-03-01T01:47:04;98759.78;;;-3.71;76.81
77574;BME280;66710;48.868;9.080;2023-03-01T01:49:35;98765.03;;;-3.96;75.80
77574;BME280;66710;48.868;9.080;2023-03-01T01:54:48;98757.91;;;-3.87;78.18
77574;BME280;66710;48.868;9.080;2023-03-01T01:57:18;98755.25;;;-3.87;77.57
77574;BME280;66710;48.868;9.080;2023-03-01T01:59:49;98750.06;;;-3.89;77.63
77574;BME280;66710;48.868;9.080;2023-03-01T02:02:16;98747.41;;;-3.89;76.75
77574;BME280;66710;48.868;9.080;2023-03-01T02:04:41;98751.75;;;-3.88;77.34
77574;BME280;66710;48.868;9.080;2023-03-01T02:07:14;98749.06;;;-3.96;77.64
77574;BME280;66710;48.868;9.080;2023-03-01T02:09:43;98741.22;;;-3.97;77.02
77574;BME280;66710;48.868;9.080;2023-03-01T02:12:10;98739.25;;;-3.95;77.30
77574;BME280;66710;48.868;9.080;2023-03-01T02:14:35;98734.44;;;-3.92;77.65
77574;BME280;66710;48.868;9.080;2023-03-01T02:17:01;98729.59;;;-3.96;77.94
77574;BME280;66710;48.868;9.080;2023-03-01T02:19:36;98728.09;;;-3.99;78.38
77574;BME280;66710;48.868;9.080;2023-03-01T02:22:24;98725.94;;;-4.04;76.94
77574;BME280;66710;48.868;9.080;2023-03-01T02:25:00;98720.97;;;-3.98;76.13
77574;BME280;66710;48.868;9.080;2023-03-01T02:27:38;98724.63;;;-3.83;76.90
77574;BME280;66710;48.868;9.080;2023-03-01T02:30:06;98715.31;;;-3.87;78.20
77574;BME280;66710;48.868;9.080;2023-03-01T02:32:33;98716.50;;;-3.82;77.46
77574;BME280;66710;48.868;9.080;2023-03-01T02:34:59;98706.03;;;-3.75;77.52
77574;BME280;66710;48.868;9.080;2023-03-01T02:37:25;98708.00;;;-3.85;78.13
77574;BME280;66710;48.868;9.080;2023-03-01T02:39:59;98710.03;;;-3.79;78.02
77574;BME280;66710;48.868;9.080;2023-03-01T02:42:31;98705.06;;;-3.74;77.94
77574;BME280;66710;48.868;9.080;2023-03-01T02:45:00;98698.53;;;-3.79;78.03
77574;BME280;66710;48.868;9.080;2023-03-01T02:47:25;98708.22;;;-3.70;78.03
77574;BME280;66710;48.868;9.080;2023-03-01T02:49:50;98696.91;;;-3.72;78.41
77574;BME280;66710;48.868;9.080;2023-03-01T02:57:27;98693.94;;;-3.53;77.19
77574;BME280;66710;48.868;9.080;2023-03-01T02:59:54;98693.59;;;-3.50;77.09
77574;BME280;66710;48.868;9.080;2023-03-01T03:02:26;98695.78;;;-3.45;77.01
77574;BME280;66710;48.868;9.080;2023-03-01T03:05:15;98691.94;;;-3.34;75.43
77574;BME280;66710;48.868;9.080;2023-03-01T03:07:43;98689.44;;;-3.36;77.20
77574;BME280;66710;48.868;9.080;2023-03-01T03:10:19;98688.13;;;-3.32;77.64
77574;BME280;66710;48.868;9.080;2023-03-01T03:13:11;98682.59;;;-3.30;76.77
77574;BME280;66710;48.868;9.080;2023-03-01T03:15:35;98680.13;;;-3.32;75.46
77574;BME280;66710;48.868;9.080;2023-03-01T03:18:03;98674.97;;;-3.33;77.11
77574;BME280;66710;48.868;9.080;2023-03-01T03:20:28;98678.94;;;-3.37;77.44
77574;BME280;66710;48.868;9.080;2023-03-01T03:22:55;98674.28;;;-3.35;77.49
77574;BME280;66710;48.868;9.080;2023-03-01T03:25:21;98673.44;;;-3.19;76.38
77574;BME280;66710;48.868;9.080;2023-03-01T03:27:48;98671.47;;;-3.17;75.97
77574;BME280;66710;48.868;9.080;2023-03-01T03:30:19;98673.28;;;-3.10;76.90
77574;BME280;66710;48.868;9.080;2023-03-01T03:32:47;98671.44;;;-3.09;76.72
77574;BME280;66710;48.868;9.080;2023-03-01T03:35:21;98675.63;;;-3.07;77.07
77574;BME280;66710;48.868;9.080;2023-03-01T03:37:46;98666.59;;;-3.06;77.21
77574;BME280;66710;48.868;9.080;2023-03-01T03:40:35;98666.78;;;-2.99;76.89
77574;BME280;66710;48.868;9.080;2023-03-01T03:43:02;98664.63;;;-3.03;77.27
77574;BME280;66710;48.868;9.080;2023-03-01T03:45:27;98664.78;;;-3.05;76.89
77574;BME280;66710;48.868;9.080;2023-03-01T03:47:53;98662.44;;;-2.92;76.57
77574;BME280;66710;48.868;9.080;2023-03-01T03:50:18;98663.94;;;-2.89;76.56
77574;BME280;66710;48.868;9.080;2023-03-01T03:52:44;98665.59;;;-2.88;76.46
77574;BME280;66710;48.868;9.080;2023-03-01T03:55:11;98662.09;;;-2.89;76.46
77574;BME280;66710;48.868;9.080;2023-03-01T03:57:41;98656.59;;;-2.87;76.51
77574;BME280;66710;48.868;9.080;2023-03-01T04:00:09;98654.41;;;-2.83;76.40
77574;BME280;66710;48.868;9.080;2023-03-01T04:02:41;98650.44;;;-2.88;76.09
77574;BME280;66710;48.868;9.080;2023-03-01T04:05:08;98647.78;;;-2.88;76.50
77574;BME280;66710;48.868;9.080;2023-03-01T04:07:35;98641.59;;;-2.80;76.74
77574;BME280;66710;48.868;9.080;2023-03-01T04:10:02;98649.56;;;-2.80;77.07
77574;BME280;66710;48.868;9.080;2023-03-01T04:12:28;98646.22;;;-2.74;77.57
77574;BME280;66710;48.868;9.080;2023-03-01T04:14:53;98634.38;;;-2.71;76.50
77574;BME280;66710;48.868;9.080;2023-03-01T04:17:18;98631.72;;;-2.63;76.22
77574;BME280;66710;48.868;9.080;2023-03-01T04:19:44;98634.06;;;-2.68;76.56
77574;BME280;66710;48.868;9.080;2023-03-01T04:22:09;98635.84;;;-2.60;76.43
77574;BME280;66710;48.868;9.080;2023-03-01T04:24:36;98634.31;;;-2.55;76.14
77574;BME280;66710;48.868;9.080;2023-03-01T04:27:02;98637.03;;;-2.63;76.97
77574;BME280;66710;48.868;9.080;2023-03-01T04:29:27;98635.50;;;-2.57;76.69
77574;BME280;66710;48.868;9.080;2023-03-01T04:31:53;98633.66;;;-2.49;75.86
77574;BME280;66710;48.868;9.080;2023-03-01T04:34:18;98628.47;;;-2.50;76.18
77574;BME280;66710;48.868;9.080;2023-03-01T04:36:44;98628.97;;;-2.46;76.07
77574;BME280;66710;48.868;9.080;2023-03-01T04:39:09;98627.59;;;-2.42;75.83
77574;BME280;66710;48.868;9.080;2023-03-01T04:41:39;98633.75;;;-2.42;76.26
77574;BME280;66710;48.868;9.080;2023-03-01T04:44:05;98638.63;;;-2.45;75.97
77574;BME280;66710;48.868;9.080;2023-03-01T04:46:31;98631.63;;;-2.46;76.26
77574;BME280;66710;48.868;9.080;2023-03-01T04:48:56;98638.09;;;-2.41;76.11
77574;BME280;66710;48.868;9.080;2023-03-01T04:51:21;98637.94;;;-2.39;75.81
77574;BME280;66710;48.868;9.080;2023-03-01T04:53:47;98629.59;;;-2.36;75.85
77574;BME280;66710;48.868;9.080;2023-03-01T04:56:12;98637.59;;;-2.36;75.93
77574;BME280;66710;48.868;9.080;2023-03-01T04:58:41;98635.25;;;-2.31;75.35
77574;BME280;66710;48.868;9.080;2023-03-01T05:01:24;98631.72;;;-2.32;75.78
77574;BME280;66710;48.868;9.080;2023-03-01T05:03:51;98630.66;;;-2.22;75.56
77574;BME280;66710;48.868;9.080;2023-03-01T05:06:17;98634.69;;;-2.26;76.17
77574;BME280;66710;48.868;9.080;2023-03-01T05:08:43;98644.53;;;-2.27;76.09
77574;BME280;66710;48.868;9.080;2023-03-01T05:11:09;98632.34;;;-2.21;75.63
77574;BME280;66710;48.868;9.080;2023-03-01T05:13:37;98630.00;;;-2.24;75.58
77574;BME280;66710;48.868;9.080;2023-03-01T05:16:03;98628.53;;;-2.27;75.94
77574;BME280;66710;48.868;9.080;2023-03-01T05:18:31;98634.50;;;-2.17;75.97
77574;BME280;66710;48.868;9.080;2023-03-01T05:21:04;98631.34;;;-2.20;75.79
77574;BME280;66710;48.868;9.080;2023-03-01T05:23:30;98627.19;;;-2.23;76.08
77574;BME280;66710;48.868;9.080;2023-03-01T05:26:00;98626.34;;;-2.23;76.08
77574;BME280;66710;48.868;9.080;2023-03-01T05:28:26;98625.69;;;-2.25;75.89
77574;BME280;66710;48.868;9.080;2023-03-01T05:30:53;98628.84;;;-2.22;76.12
77574;BME280;66710;48.868;9.080;2023-03-01T05:33:18;98618.19;;;-2.22;76.19
77574;BME280;66710;48.868;9.080;2023-03-01T05:35:44;98626.00;;;-2.20;75.70
77574;BME280;66710;48.868;9.080;2023-03-01T05:38:11;98626.19;;;-2.22;75.72
77574;BME280;66710;48.868;9.080;2023-03-01T05:40:43;98633.41;;;-2.31;75.82
77574;BME280;66710;48.868;9.080;2023-03-01T05:43:10;98631.03;;;-2.25;75.50
77574;BME280;66710;48.868;9.080;2023-03-01T05:45:36;98625.38;;;-2.31;75.59
77574;BME280;66710;48.868;9.080;2023-03-01T05:48:03;98624.78;;;-2.41;75.87
77574;BME280;66710;48.868;9.080;2023-03-01T05:50:29;98622.91;;;-2.40;76.17
77574;BME280;66710;48.868;9.080;2023-03-01T05:52:59;98625.59;;;-2.40;76.35
77574;BME280;66710;48.868;9.080;2023-03-01T05:55:25;98624.28;;;-2.44;75.83
77574;BME280;66710;48.868;9.080;2023-03-01T05:57:51;98626.13;;;-2.45;76.44
77574;BME280;66710;48.868;9.080;2023-03-01T06:00:18;98624.13;;;-2.43;76.50
77574;BME280;66710;48.868;9.080;2023-03-01T06:02:44;98621.28;;;-2.41;76.04
77574;BME280;66710;48.868;9.080;2023-03-01T06:05:11;98617.25;;;-2.37;76.05
77574;BME280;66710;48.868;9.080;2023-03-01T06:07:37;98619.09;;;-2.38;76.50
77574;BME280;66710;48.868;9.080;2023-03-01T06:10:04;98620.41;;;-2.34;76.38
77574;BME280;66710;48.868;9.080;2023-03-01T06:12:33;98616.13;;;-2.43;76.55
77574;BME280;66710;48.868;9.080;2023-03-01T06:14:59;98624.09;;;-2.35;76.41
77574;BME280;66710;48.868;9.080;2023-03-01T06:17:24;98620.75;;;-2.37;76.57
77574;BME280;66710;48.868;9.080;2023-03-01T06:19:50;98618.44;;;-2.40;76.45
77574;BME280;66710;48.868;9.080;2023-03-01T06:22:15;98617.97;;;-2.43;77.00
77574;BME280;66710;48.868;9.080;2023-03-01T06:24:40;98626.94;;;-2.36;76.43
77574;BME280;66710;48.868;9.080;2023-03-01T06:27:06;98628.09;;;-2.39;76.75
77574;BME280;66710;48.868;9.080;2023-03-01T06:29:31;98616.09;;;-2.35;75.96
77574;BME280;66710;48.868;9.080;2023-03-01T06:31:56;98625.75;;;-2.42;76.98
77574;BME280;66710;48.868;9.080;2023-03-01T06:34:21;98622.28;;;-2.42;76.99
77574;BME280;66710;48.868;9.080;2023-03-01T06:36:47;98613.75;;;-2.38;76.66
77574;BME280;66710;48.868;9.080;2023-03-01T06:39:12;98611.88;;;-2.29;76.59
77574;BME280;66710;48.868;9.080;2023-03-01T06:41:37;98618.84;;;-2.28;76.51
77574;BME280;66710;48.868;9.080;2023-03-01T06:44:03;98609.88;;;-2.27;76.71
77574;BME280;66710;48.868;9.080;2023-03-01T06:46:28;98611.91;;;-2.37;76.83
77574;BME280;66710;48.868;9.080;2023-03-01T06:48:53;98605.63;;;-2.44;76.74
77574;BME280;66710;48.868;9.080;2023-03-01T06:51:18;98608.28;;;-2.44;76.35
77574;BME280;66710;48.868;9.080;2023-03-01T06:53:45;98606.75;;;-2.39;76.77
77574;BME280;66710;48.868;9.080;2023-03-01T06:56:11;98613.97;;;-2.48;76.30
77574;BME280;66710;48.868;9.080;2023-03-01T06:58:36;98619.50;;;-2.57;77.04
77574;BME280;66710;48.868;9.080;2023-03-01T07:01:05;98612.56;;;-2.35;76.46
77574;BME280;66710;48.868;9.080;2023-03-01T07:03:31;98612.69;;;-2.29;77.85
77574;BME280;66710;48.868;9.080;2023-03-01T07:05:56;98611.56;;;-2.34;77.35
77574;BME280;66710;48.868;9.080;2023-03-01T07:08:21;98618.38;;;-2.00;76.51
77574;BME280;66710;48.868;9.080;2023-03-01T07:10:46;98612.28;;;-2.17;75.92
77574;BME280;66710;48.868;9.080;2023-03-01T07:13:12;98611.75;;;-2.04;75.45
77574;BME280;66710;48.868;9.080;2023-03-01T07:15:37;98612.03;;;-1.99;74.98
77574;BME280;66710;48.868;9.080;2023-03-01T07:18:05;98607.56;;;-2.07;75.21
77574;BME280;66710;48.868;9.080;2023-03-01T07:20:30;98605.84;;;-2.00;74.90
77574;BME280;66710;48.868;9.080;2023-03-01T07:22:55;98608.00;;;-1.95;75.17
77574;BME280;66710;48.868;9.080;2023-03-01T07:25:23;98605.16;;;-1.70;74.16
77574;BME280;66710;48.868;9.080;2023-03-01T07:27:50;98600.41;;;-1.60;73.44
77574;BME280;66710;48.868;9.080;2023-03-01T07:30:16;98603.00;;;-1.52;72.94
77574;BME280;66710;48.868;9.080;2023-03-01T07:32:41;98601.38;;;-1.38;73.09
77574;BME280;66710;48.868;9.080;2023-03-01T07:35:07;98603.09;;;-1.45;73.43
77574;BME280;66710;48.868;9.080;2023-03-01T07:37:32;98602.22;;;-1.38;73.01
77574;BME280;66710;48.868;9.080;2023-03-01T07:39:57;98589.41;;;-1.27;72.06
77574;BME280;66710;48.868;9.080;2023-03-01T07:42:23;98580.31;;;-1.03;71.95
77574;BME280;66710;48.868;9.080;2023-03-01T07:44:49;98575.97;;;-1.04;71.73
77574;BME280;66710;48.868;9.080;2023-03-01T07:47:14;98580.97;;;-1.01;71.61
77574;BME280;66710;48.868;9.080;2023-03-01T07:49:39;98578.47;;;-0.73;70.85
77574;BME280;66710;48.868;9.080;2023-03-01T07:52:05;98579.94;;;-0.55;70.36
77574;BME280;66710;48.868;9.080;2023-03-01T07:54:30;98582.25;;;-0.52;70.12
77574;BME280;66710;48.868;9.080;2023-03-01T07:56:56;98582.81;;;-0.21;69.20
77574;BME280;66710;48.868;9.080;2023-03-01T07:59:21;98578.09;;;-0.18;69.43
77574;BME280;66710;48.868;9.080;2023-03-01T08:01:48;98573.38;;;-0.16;68.54
77574;BME280;66710;48.868;9.080;2023-03-01T08:04:14;98572.84;;;0.10;66.80
77574;BME280;66710;48.868;9.080;2023-03-01T08:06:39;98568.94;;;-0.09;66.47
77574;BME280;66710;48.868;9.080;2023-03-01T08:09:04;98567.63;;;0.23;66.10
77574;BME280;66710;48.868;9.080;2023-03-01T08:11:29;98568.72;;;0.07;66.13
77574;BME280;66710;48.868;9.080;2023-03-01T08:13:55;98567.75;;;0.15;65.50
77574;BME280;66710;48.868;9.080;2023-03-01T08:16:21;98562.25;;;0.23;65.54
77574;BME280;66710;48.868;9.080;2023-03-01T08:18:46;98568.09;;;0.33;65.23
77574;BME280;66710;48.868;9.080;2023-03-01T08:21:14;98560.94;;;0.41;64.70
77574;BME280;66710;48.868;9.080;2023-03-01T08:23:40;98565.56;;;0.47;64.51
77574;BME280;66710;48.868;9.080;2023-03-01T08:26:11;98563.31;;;0.50;64.58
77574;BME280;66710;48.868;9.080;2023-03-01T08:28:37;98557.28;;;0.70;63.80
77574;BME280;66710;48.868;9.080;2023-03-01T08:31:12;98556.69;;;1.03;63.29
77574;BME280;66710;48.868;9.080;2023-03-01T08:33:37;98552.69;;;0.92;62.59
77574;BME280;66710;48.868;9.080;2023-03-01T08:36:06;98556.06;;;1.07;62.52
77574;BME280;66710;48.868;9.080;2023-03-01T08:38:33;98554.38;;;1.35;61.70
77574;BME280;66710;48.868;9.080;2023-03-01T08:41:00;98555.69;;;1.59;61.35
77574;BME280;66710;48.868;9.080;2023-03-01T08:43:25;98550.47;;;1.44;61.02
77574;BME280;66710;48.868;9.080;2023-03-01T08:45:51;98551.75;;;1.55;60.85
77574;BME280;66710;48.868;9.080;2023-03-01T08:48:16;98553.19;;;1.50;60.46
77574;BME280;66710;48.868;9.080;2023-03-01T08:50:41;98549.91;;;1.48;60.32
77574;BME280;66710;48.868;9.080;2023-03-01T08:53:06;98544.44;;;1.90;59.90
77574;BME280;66710;48.868;9.080;2023-03-01T08:55:32;98553.13;;;1.85;59.31
77574;BME280;66710;48.868;9.080;2023-03-01T08:57:57;98543.47;;;2.31;58.51
77574;BME280;66710;48.868;9.080;2023-03-01T09:00:24;98540.38;;;2.34;58.24
77574;BME280;66710;48.868;9.080;2023-03-01T09:02:50;98541.63;;;2.32;58.55
77574;BME280;66710;48.868;9.080;2023-03-01T09:05:15;98532.09;;;2.82;57.23
77574;BME280;66710;48.868;9.080;2023-03-01T09:07:40;98532.41;;;3.19;57.08
77574;BME280;66710;48.868;9.080;2023-03-01T09:10:06;98527.44;;;3.68;55.72
77574;BME280;66710;48.868;9.080;2023-03-01T09:12:31;98523.47;;;4.09;54.39
77574;BME280;66710;48.868;9.080;2023-03-01T09:14:56;98522.66;;;3.70;55.02
77574;BME280;66710;48.868;9.080;2023-03-01T09:17:22;98516.78;;;3.87;53.59
77574;BME280;66710;48.868;9.080;2023-03-01T09:19:47;98516.16;;;3.85;53.50
77574;BME280;66710;48.868;9.080;2023-03-01T09:22:13;98504.66;;;4.03;53.41
77574;BME280;66710;48.868;9.080;2023-03-01T09:24:38;98508.91;;;4.67;51.14
77574;BME280;66710;48.868;9.080;2023-03-01T09:27:04;98508.34;;;4.08;53.19
77574;BME280;66710;48.868;9.080;2023-03-01T09:29:33;98504.00;;;4.07;52.63
77574;BME280;66710;48.868;9.080;2023-03-01T09:31:58;98498.25;;;3.97;52.56
77574;BME280;66710;48.868;9.080;2023-03-01T09:34:24;98484.44;;;4.44;51.61
77574;BME280;66710;48.868;9.080;2023-03-01T09:36:50;98495.41;;;4.24;51.91
77574;BME280;66710;48.868;9.080;2023-03-01T09:39:16;98498.00;;;4.05;51.46
77574;BME280;66710;48.868;9.080;2023-03-01T09:44:30;98494.72;;;4.53;51.73
77574;BME280;66710;48.868;9.080;2023-03-01T09:46:58;98486.47;;;4.48;51.71
77574;BME280;66710;48.868;9.080;2023-03-01T09:49:28;98488.63;;;4.83;50.94
77574;BME280;66710;48.868;9.080;2023-03-01T09:52:17;98497.13;;;4.62;50.75
77574;BME280;66710;48.868;9.080;2023-03-01T09:54:46;98483.84;;;5.04;50.10
77574;BME280;66710;48.868;9.080;2023-03-01T09:57:30;98497.84;;;5.49;49.03
77574;BME280;66710;48.868;9.080;2023-03-01T10:00:10;98485.22;;;4.69;49.94
77574;BME280;66710;48.868;9.080;2023-03-01T10:02:45;98484.50;;;4.81;49.58
77574;BME280;66710;48.868;9.080;2023-03-01T10:05:40;98481.09;;;5.89;48.02
77574;BME280;66710;48.868;9.080;2023-03-01T10:08:41;98480.59;;;5.81;47.79
77574;BME280;66710;48.868;9.080;2023-03-01T10:11:19;98468.47;;;5.04;48.77
77574;BME280;66710;48.868;9.080;2023-03-01T10:14:13;98478.28;;;5.84;47.70
77574;BME280;66710;48.868;9.080;2023-03-01T10:16:57;98476.16;;;6.40;46.50
77574;BME280;66710;48.868;9.080;2023-03-01T10:22:29;98464.63;;;6.21;47.17
77574;BME280;66710;48.868;9.080;2023-03-01T10:24:59;98461.94;;;6.80;46.50
77574;BME280;66710;48.868;9.080;2023-03-01T10:27:29;98454.53;;;6.29;45.72
77574;BME280;66710;48.868;9.080;2023-03-01T10:32:44;98440.09;;;7.22;45.57
77574;BME280;66710;48.868;9.080;2023-03-01T10:35:22;98444.16;;;7.66;43.76
77574;BME280;66710;48.868;9.080;2023-03-01T10:37:58;98429.19;;;7.92;44.79
77574;BME280;66710;48.868;9.080;2023-03-01T10:40:28;98426.69;;;8.19;43.05
77574;BME280;66710;48.868;9.080;2023-03-01T10:42:57;98430.72;;;7.71;43.17
77574;BME280;66710;48.868;9.080;2023-03-01T10:45:32;98420.09;;;7.52;43.69
77574;BME280;66710;48.868;9.080;2023-03-01T10:48:21;98427.53;;;7.74;43.88
77574;BME280;66710;48.868;9.080;2023-03-01T10:51:14;98438.53;;;7.27;43.71
77574;BME280;66710;48.868;9.080;2023-03-01T10:53:41;98428.44;;;8.42;41.70
77574;BME280;66710;48.868;9.080;2023-03-01T10:56:09;98420.63;;;7.66;42.74
77574;BME280;66710;48.868;9.080;2023-03-01T10:58:40;98428.50;;;7.68;42.43
77574;BME280;66710;48.868;9.080;2023-03-01T11:01:28;98416.91;;;7.72;43.04
77574;BME280;66710;48.868;9.080;2023-03-01T11:06:32;98404.53;;;7.76;41.95
77574;BME280;66710;48.868;9.080;2023-03-01T11:09:20;98402.97;;;7.97;41.44
77574;BME280;66710;48.868;9.080;2023-03-01T11:11:46;98395.88;;;7.63;42.81
77574;BME280;66710;48.868;9.080;2023-03-01T11:14:20;98389.09;;;8.11;42.16
77574;BME280;66710;48.868;9.080;2023-03-01T11:16:48;98382.63;;;9.12;40.24
77574;BME280;66710;48.868;9.080;2023-03-01T11:19:22;98380.69;;;9.57;39.90
77574;BME280;66710;48.868;9.080;2023-03-01T11:21:58;98384.78;;;9.32;40.17
77574;BME280;66710;48.868;9.080;2023-03-01T11:24:40;98375.50;;;9.06;39.61
77574;BME280;66710;48.868;9.080;2023-03-01T11:27:16;98373.22;;;10.01;39.38
77574;BME280;66710;48.868;9.080;2023-03-01T11:29:47;98365.16;;;8.81;40.38
77574;BME280;66710;48.868;9.080;2023-03-01T11:32:16;98367.81;;;9.74;39.42
77574;BME280;66710;48.868;9.080;2023-03-01T11:34:49;98365.72;;;9.81;39.36
77574;BME280;66710;48.868;9.080;2023-03-01T11:37:28;98359.34;;;9.43;38.27
77574;BME280;66710;48.868;9.080;2023-03-01T11:40:13;98351.06;;;10.25;38.38
77574;BME280;66710;48.868;9.080;2023-03-01T11:45:12;98340.81;;;9.40;39.17
77574;BME280;66710;48.868;9.080;2023-03-01T11:47:52;98331.31;;;9.16;39.25
77574;BME280;66710;48.868;9.080;2023-03-01T11:50:41;98343.34;;;9.79;38.83
77574;BME280;66710;48.868;9.080;2023-03-01T11:53:27;98341.75;;;9.24;39.08
77574;BME280;66710;48.868;9.080;2023-03-01T11:56:09;98335.25;;;9.03;39.93
77574;BME280;66710;48.868;9.080;2023-03-01T11:58:45;98334.97;;;9.54;38.55
77574;BME280;66710;48.868;9.080;2023-03-01T12:04:54;98325.16;;;9.80;38.17
77574;BME280;66710;48.868;9.080;2023-03-01T12:13:18;98305.16;;;9.37;38.72
77574;BME280;66710;48.868;9.080;2023-03-01T12:19:01;98302.13;;;9.60;38.10
77574;BME280;66710;48.868;9.080;2023-03-01T12:29:55;98274.28;;;10.76;36.75
77574;BME280;66710;48.868;9.080;2023-03-01T12:32:39;98267.97;;;10.65;36.59
77574;BME280;66710;48.868;9.080;2023-03-01T12:37:58;98252.16;;;10.67;36.57
77574;BME280;66710;48.868;9.080;2023-03-01T12:40:46;98249.84;;;11.12;36.21
77574;BME280;66710;48.868;9.080;2023-03-01T12:43:25;98253.41;;;11.43;36.37
77574;BME280;66710;48.868;9.080;2023-03-01T12:51:20;98248.13;;;10.85;36.04
77574;BME280;66710;48.868;9.080;2023-03-01T12:53:49;98232.72;;;11.47;35.02
77574;BME280;66710;48.868;9.080;2023-03-01T12:56:24;98230.19;;;10.94;36.30
77574;BME280;66710;48.868;9.080;2023-03-01T12:59:34;98223.41;;;11.79;35.16
77574;BME280;66710;48.868;9.080;2023-03-01T13:02:22;98213.31;;;11.18;36.22
77574;BME280;66710;48.868;9.080;2023-03-01T13:05:50;98221.25;;;11.35;36.12
77574;BME280;66710;48.868;9.080;2023-03-01T13:10:52;98207.13;;;12.49;33.98
77574;BME280;66710;48.868;9.080;2023-03-01T13:13:26;98205.38;;;11.88;34.92
77574;BME280;66710;48.868;9.080;2023-03-01T13:15:52;98205.91;;;11.85;35.47
77574;BME280;66710;48.868;9.080;2023-03-01T13:20:51;98197.78;;;11.44;35.67
77574;BME280;66710;48.868;9.080;2023-03-01T13:26:08;98198.81;;;11.94;34.29
77574;BME280;66710;48.868;9.080;2023-03-01T13:28:39;98201.00;;;11.82;35.13
77574;BME280;66710;48.868;9.080;2023-03-01T13:31:08;98186.63;;;12.97;34.05
77574;BME280;66710;48.868;9.080;2023-03-01T13:33:47;98184.41;;;12.54;33.89
77574;BME280;66710;48.868;9.080;2023-03-01T13:36:45;98194.97;;;12.11;33.98
77574;BME280;66710;48.868;9.080;2023-03-01T13:39:30;98185.22;;;11.74;34.45
77574;BME280;66710;48.868;9.080;2023-03-01T13:41:57;98193.03;;;12.17;35.11
77574;BME280;66710;48.868;9.080;2023-03-01T13:46:51;98190.03;;;13.18;34.22
77574;BME280;66710;48.868;9.080;2023-03-01T13:49:23;98193.78;;;12.43;33.67
77574;BME280;66710;48.868;9.080;2023-03-01T13:51:51;98191.16;;;12.02;35.52
77574;BME280;66710;48.868;9.080;2023-03-01T13:54:26;98183.25;;;12.05;35.37
77574;BME280;66710;48.868;9.080;2023-03-01T13:56:54;98190.34;;;11.96;34.33
77574;BME280;66710;48.868;9.080;2023-03-01T13:59:21;98190.66;;;11.84;34.75
77574;BME280;66710;48.868;9.080;2023-03-01T14:01:55;98189.28;;;12.02;34.78
77574;BME280;66710;48.868;9.080;2023-03-01T14:04:26;98179.50;;;11.45;36.14
77574;BME280;66710;48.868;9.080;2023-03-01T14:06:52;98183.28;;;11.69;35.37
77574;BME280;66710;48.868;9.080;2023-03-01T14:09:36;98179.75;;;11.48;36.03
77574;BME280;66710;48.868;9.080;2023-03-01T14:12:27;98174.28;;;11.79;36.42
77574;BME280;66710;48.868;9.080;2023-03-01T14:20:29;98169.63;;;12.00;35.31
77574;BME280;66710;48.868;9.080;2023-03-01T14:23:01;98169.69;;;11.49;35.41